sensor_id;sensor_type;location;lat;lon;timestamp;pressure;altitude;pressure_sealevel;temperature
81657;BMP280;71067;51.482;-0.580;2023-09-19T00:01:06;100681.47;;;14.67
81657;BMP280;71067;51.482;-0.580;2023-09-19T00:03:33;100702.53;;;14.72
81657;BMP280;71067;51.482;-0.580;2023-09-19T00:06:02;100694.53;;;14.73
81657;BMP280;71067;51.482;-0.580;2023-09-19T00:08:28;100691.31;;;14.71
81657;BMP280;71067;51.482;-0.580;2023-09-19T00:10:54;100703.97;;;14.74
81657;BMP280;71067;51.482;-0.580;2023-09-19T00:13:19;100701.53;;;14.73
81657;BMP280;71067;51.482;-0.580;2023-09-19T00:15:46;100687.84;;;14.64
81657;BMP280;71067;51.482;-0.580;2023-09-19T00:18:13;100702.94;;;14.75
81657;BMP280;71067;51.482;-0.580;2023-09-19T00:20:41;100694.38;;;14.75
81657;BMP280;71067;51.482;-0.580;2023-09-19T00:23:07;100683.53;;;14.78
81657;BMP280;71067;51.482;-0.580;2023-09-19T00:25:36;100677.09;;;14.74
81657;BMP280;71067;51.482;-0.580;2023-09-19T00:28:03;100683.13;;;14.74
81657;BMP280;71067;51.482;-0.580;2023-09-19T00:30:29;100676.28;;;14.73
81657;BMP280;71067;51.482;-0.580;2023-09-19T00:32:55;100682.69;;;14.71
81657;BMP280;71067;51.482;-0.580;2023-09-19T00:35:23;100666.56;;;14.61
81657;BMP280;71067;51.482;-0.580;2023-09-19T00:37:49;100678.84;;;14.67
81657;BMP280;71067;51.482;-0.580;2023-09-19T00:40:14;100668.56;;;14.59
81657;BMP280;71067;51.482;-0.580;2023-09-19T00:42:44;100680.03;;;14.64
81657;BMP280;71067;51.482;-0.580;2023-09-19T00:45:10;100681.63;;;14.65
81657;BMP280;71067;51.482;-0.580;2023-09-19T00:47:38;100697.91;;;14.67
81657;BMP280;71067;51.482;-0.580;2023-09-19T00:50:05;100689.84;;;14.62
81657;BMP280;71067;51.482;-0.580;2023-09-19T00:52:42;100693.25;;;14.63
81657;BMP280;71067;51.482;-0.580;2023-09-19T00:55:08;100704.84;;;14.60
81657;BMP280;71067;51.482;-0.580;2023-09-19T00:57:35;100699.00;;;14.58
81657;BMP280;71067;51.482;-0.580;2023-09-19T01:00:03;100691.41;;;14.57
81657;BMP280;71067;51.482;-0.580;2023-09-19T01:02:32;100707.44;;;14.60
81657;BMP280;71067;51.482;-0.580;2023-09-19T01:04:58;100705.84;;;14.59
81657;BMP280;71067;51.482;-0.580;2023-09-19T01:07:25;100705.22;;;14.57
81657;BMP280;71067;51.482;-0.580;2023-09-19T01:09:51;100708.84;;;14.56
81657;BMP280;71067;51.482;-0.580;2023-09-19T01:12:30;100691.53;;;14.49
81657;BMP280;71067;51.482;-0.580;2023-09-19T01:15:04;100698.34;;;14.50
81657;BMP280;71067;51.482;-0.580;2023-09-19T01:17:34;100708.03;;;14.56
81657;BMP280;71067;51.482;-0.580;2023-09-19T01:23:11;100709.66;;;14.57
81657;BMP280;71067;51.482;-0.580;2023-09-19T01:31:04;100697.97;;;14.53
81657;BMP280;71067;51.482;-0.580;2023-09-19T01:33:57;100698.41;;;14.56
81657;BMP280;71067;51.482;-0.580;2023-09-19T01:36:23;100691.94;;;14.52
81657;BMP280;71067;51.482;-0.580;2023-09-19T01:38:49;100694.63;;;14.59
81657;BMP280;71067;51.482;-0.580;2023-09-19T01:41:17;100685.16;;;14.51
81657;BMP280;71067;51.482;-0.580;2023-09-19T01:43:49;100691.19;;;14.58
81657;BMP280;71067;51.482;-0.580;2023-09-19T01:46:24;100669.88;;;14.48
81657;BMP280;71067;51.482;-0.580;2023-09-19T01:54:52;100677.38;;;14.58
81657;BMP280;71067;51.482;-0.580;2023-09-19T01:57:25;100678.75;;;14.54
81657;BMP280;71067;51.482;-0.580;2023-09-19T02:00:19;100698.66;;;14.61
81657;BMP280;71067;51.482;-0.580;2023-09-19T02:02:47;100690.84;;;14.61
81657;BMP280;71067;51.482;-0.580;2023-09-19T02:05:13;100695.97;;;14.55
81657;BMP280;71067;51.482;-0.580;2023-09-19T02:07:46;100698.22;;;14.58
81657;BMP280;71067;51.482;-0.580;2023-09-19T02:10:12;100703.63;;;14.56
81657;BMP280;71067;51.482;-0.580;2023-09-19T02:12:37;100695.63;;;14.58
81657;BMP280;71067;51.482;-0.580;2023-09-19T02:15:03;100698.41;;;14.56
81657;BMP280;71067;51.482;-0.580;2023-09-19T02:17:31;100693.94;;;14.50
81657;BMP280;71067;51.482;-0.580;2023-09-19T02:19:57;100710.97;;;14.53
81657;BMP280;71067;51.482;-0.580;2023-09-19T02:22:24;100712.78;;;14.52
81657;BMP280;71067;51.482;-0.580;2023-09-19T02:24:50;100711.78;;;14.53
81657;BMP280;71067;51.482;-0.580;2023-09-19T02:27:16;100711.59;;;14.55
81657;BMP280;71067;51.482;-0.580;2023-09-19T02:29:42;100703.97;;;14.53
81657;BMP280;71067;51.482;-0.580;2023-09-19T02:32:07;100704.59;;;14.55
81657;BMP280;71067;51.482;-0.580;2023-09-19T02:34:35;100705.63;;;14.54
81657;BMP280;71067;51.482;-0.580;2023-09-19T02:37:04;100701.75;;;14.50
81657;BMP280;71067;51.482;-0.580;2023-09-19T02:39:30;100712.41;;;14.55
81657;BMP280;71067;51.482;-0.580;2023-09-19T02:41:56;100693.94;;;14.50
81657;BMP280;71067;51.482;-0.580;2023-09-19T02:44:21;100693.00;;;14.58
81657;BMP280;71067;51.482;-0.580;2023-09-19T02:46:49;100676.75;;;14.56
81657;BMP280;71067;51.482;-0.580;2023-09-19T02:49:14;100682.41;;;14.59
81657;BMP280;71067;51.482;-0.580;2023-09-19T02:51:39;100689.22;;;14.60
81657;BMP280;71067;51.482;-0.580;2023-09-19T02:54:05;100687.41;;;14.61
81657;BMP280;71067;51.482;-0.580;2023-09-19T02:56:30;100677.56;;;14.56
81657;BMP280;71067;51.482;-0.580;2023-09-19T02:58:57;100689.22;;;14.60
81657;BMP280;71067;51.482;-0.580;2023-09-19T03:01:22;100680.41;;;14.61
81657;BMP280;71067;51.482;-0.580;2023-09-19T03:03:48;100675.56;;;14.58
81657;BMP280;71067;51.482;-0.580;2023-09-19T03:06:14;100677.19;;;14.59
81657;BMP280;71067;51.482;-0.580;2023-09-19T03:08:40;100681.22;;;14.62
81657;BMP280;71067;51.482;-0.580;2023-09-19T03:11:10;100675.56;;;14.58
81657;BMP280;71067;51.482;-0.580;2023-09-19T03:13:36;100673.41;;;14.62
81657;BMP280;71067;51.482;-0.580;2023-09-19T03:16:06;100670.97;;;14.60
81657;BMP280;71067;51.482;-0.580;2023-09-19T03:18:33;100670.81;;;14.62
81657;BMP280;71067;51.482;-0.580;2023-09-19T03:20:59;100670.34;;;14.58
81657;BMP280;71067;51.482;-0.580;2023-09-19T03:23:25;100680.78;;;14.58
81657;BMP280;71067;51.482;-0.580;2023-09-19T03:25:51;100671.16;;;14.59
81657;BMP280;71067;51.482;-0.580;2023-09-19T03:28:17;100668.00;;;14.63
81657;BMP280;71067;51.482;-0.580;2023-09-19T03:30:43;100666.97;;;14.58
81657;BMP280;71067;51.482;-0.580;2023-09-19T03:33:09;100660.53;;;14.60
81657;BMP280;71067;51.482;-0.580;2023-09-19T03:35:37;100655.19;;;14.62
81657;BMP280;71067;51.482;-0.580;2023-09-19T03:38:03;100654.97;;;14.63
81657;BMP280;71067;51.482;-0.580;2023-09-19T03:40:29;100637.53;;;14.64
81657;BMP280;71067;51.482;-0.580;2023-09-19T03:42:54;100649.16;;;14.61
81657;BMP280;71067;51.482;-0.580;2023-09-19T03:45:20;100627.09;;;14.64
81657;BMP280;71067;51.482;-0.580;2023-09-19T03:47:45;100633.13;;;14.64
81657;BMP280;71067;51.482;-0.580;2023-09-19T03:50:13;100628.31;;;14.61
81657;BMP280;71067;51.482;-0.580;2023-09-19T03:52:45;100628.31;;;14.61
81657;BMP280;71067;51.482;-0.580;2023-09-19T03:55:11;100622.69;;;14.64
81657;BMP280;71067;51.482;-0.580;2023-09-19T03:57:37;100612.47;;;14.63
81657;BMP280;71067;51.482;-0.580;2023-09-19T04:00:03;100619.53;;;14.69
81657;BMP280;71067;51.482;-0.580;2023-09-19T04:02:30;100610.09;;;14.68
81657;BMP280;71067;51.482;-0.580;2023-09-19T04:04:58;100610.72;;;14.70
81657;BMP280;71067;51.482;-0.580;2023-09-19T04:07:23;100604.31;;;14.72
81657;BMP280;71067;51.482;-0.580;2023-09-19T04:09:51;100601.06;;;14.70
81657;BMP280;71067;51.482;-0.580;2023-09-19T04:12:18;100593.72;;;14.74
81657;BMP280;71067;51.482;-0.580;2023-09-19T04:14:43;100596.09;;;14.75
81657;BMP280;71067;51.482;-0.580;2023-09-19T04:17:09;100581.25;;;14.76
81657;BMP280;71067;51.482;-0.580;2023-09-19T04:19:35;100573.91;;;14.79
81657;BMP280;71067;51.482;-0.580;2023-09-19T04:22:00;100579.09;;;14.79
81657;BMP280;71067;51.482;-0.580;2023-09-19T04:24:26;100583.94;;;14.82
81657;BMP280;71067;51.482;-0.580;2023-09-19T04:26:51;100566.44;;;14.76
81657;BMP280;71067;51.482;-0.580;2023-09-19T04:29:17;100575.31;;;14.88
81657;BMP280;71067;51.482;-0.580;2023-09-19T04:31:44;100569.94;;;14.90
81657;BMP280;71067;51.482;-0.580;2023-09-19T04:34:10;100582.78;;;14.91
81657;BMP280;71067;51.482;-0.580;2023-09-19T04:36:39;100574.56;;;14.94
81657;BMP280;71067;51.482;-0.580;2023-09-19T04:39:05;100568.38;;;14.95
81657;BMP280;71067;51.482;-0.580;2023-09-19T04:41:30;100579.22;;;15.06
81657;BMP280;71067;51.482;-0.580;2023-09-19T04:43:56;100576.25;;;15.09
81657;BMP280;71067;51.482;-0.580;2023-09-19T04:46:21;100584.66;;;15.11
81657;BMP280;71067;51.482;-0.580;2023-09-19T04:48:46;100572.84;;;15.08
81657;BMP280;71067;51.482;-0.580;2023-09-19T04:51:12;100570.03;;;15.16
81657;BMP280;71067;51.482;-0.580;2023-09-19T04:53:38;100578.91;;;15.22
81657;BMP280;71067;51.482;-0.580;2023-09-19T04:56:04;100578.53;;;15.25
81657;BMP280;71067;51.482;-0.580;2023-09-19T04:58:29;100579.53;;;15.30
81657;BMP280;71067;51.482;-0.580;2023-09-19T05:00:55;100568.88;;;15.32
81657;BMP280;71067;51.482;-0.580;2023-09-19T05:03:21;100562.06;;;15.31
81657;BMP280;71067;51.482;-0.580;2023-09-19T05:05:47;100578.16;;;15.41
81657;BMP280;71067;51.482;-0.580;2023-09-19T05:08:12;100573.34;;;15.44
81657;BMP280;71067;51.482;-0.580;2023-09-19T05:10:39;100581.00;;;15.46
81657;BMP280;71067;51.482;-0.580;2023-09-19T05:13:05;100570.34;;;15.47
81657;BMP280;71067;51.482;-0.580;2023-09-19T05:15:32;100580.78;;;15.54
81657;BMP280;71067;51.482;-0.580;2023-09-19T05:17:57;100561.31;;;15.50
81657;BMP280;71067;51.482;-0.580;2023-09-19T05:20:23;100573.78;;;15.61
81657;BMP280;71067;51.482;-0.580;2023-09-19T05:23:02;100571.38;;;15.66
81657;BMP280;71067;51.482;-0.580;2023-09-19T05:25:31;100555.31;;;15.62
81657;BMP280;71067;51.482;-0.580;2023-09-19T05:27:58;100561.75;;;15.73
81657;BMP280;71067;51.482;-0.580;2023-09-19T05:30:27;100564.97;;;15.75
81657;BMP280;71067;51.482;-0.580;2023-09-19T05:32:53;100564.41;;;15.79
81657;BMP280;71067;51.482;-0.580;2023-09-19T05:35:19;100554.31;;;15.83
81657;BMP280;71067;51.482;-0.580;2023-09-19T05:37:46;100553.13;;;15.85
81657;BMP280;71067;51.482;-0.580;2023-09-19T05:40:12;100550.13;;;15.88
81657;BMP280;71067;51.482;-0.580;2023-09-19T05:42:39;100542.88;;;15.90
81657;BMP280;71067;51.482;-0.580;2023-09-19T05:45:06;100529.06;;;15.90
81657;BMP280;71067;51.482;-0.580;2023-09-19T05:47:32;100540.28;;;15.97
81657;BMP280;71067;51.482;-0.580;2023-09-19T05:49:57;100538.88;;;16.01
81657;BMP280;71067;51.482;-0.580;2023-09-19T05:52:24;100530.63;;;16.04
81657;BMP280;71067;51.482;-0.580;2023-09-19T05:54:49;100516.59;;;16.05
81657;BMP280;71067;51.482;-0.580;2023-09-19T05:57:15;100523.59;;;16.11
81657;BMP280;71067;51.482;-0.580;2023-09-19T05:59:41;100523.16;;;16.14
81657;BMP280;71067;51.482;-0.580;2023-09-19T06:02:08;100520.38;;;16.16
81657;BMP280;71067;51.482;-0.580;2023-09-19T06:04:33;100517.16;;;16.20
81657;BMP280;71067;51.482;-0.580;2023-09-19T06:06:59;100513.34;;;16.23
81657;BMP280;71067;51.482;-0.580;2023-09-19T06:09:25;100510.91;;;16.28
81657;BMP280;71067;51.482;-0.580;2023-09-19T06:11:53;100501.84;;;16.30
81657;BMP280;71067;51.482;-0.580;2023-09-19T06:14:18;100507.69;;;16.32
81657;BMP280;71067;51.482;-0.580;2023-09-19T06:16:44;100508.69;;;16.31
81657;BMP280;71067;51.482;-0.580;2023-09-19T06:19:10;100509.69;;;16.37
81657;BMP280;71067;51.482;-0.580;2023-09-19T06:21:36;100486.75;;;16.39
81657;BMP280;71067;51.482;-0.580;2023-09-19T06:24:02;100493.38;;;16.41
81657;BMP280;71067;51.482;-0.580;2023-09-19T06:26:28;100496.19;;;16.46
81657;BMP280;71067;51.482;-0.580;2023-09-19T06:28:54;100491.34;;;16.50
81657;BMP280;71067;51.482;-0.580;2023-09-19T06:31:21;100487.31;;;16.54
81657;BMP280;71067;51.482;-0.580;2023-09-19T06:33:48;100480.88;;;16.56
81657;BMP280;71067;51.482;-0.580;2023-09-19T06:36:13;100499.75;;;16.58
81657;BMP280;71067;51.482;-0.580;2023-09-19T06:38:40;100497.31;;;16.63
81657;BMP280;71067;51.482;-0.580;2023-09-19T06:41:06;100493.50;;;16.66
81657;BMP280;71067;51.482;-0.580;2023-09-19T06:43:33;100494.72;;;16.63
81657;BMP280;71067;51.482;-0.580;2023-09-19T06:46:00;100508.56;;;16.70
81657;BMP280;71067;51.482;-0.580;2023-09-19T06:48:25;100493.47;;;16.72
81657;BMP280;71067;51.482;-0.580;2023-09-19T06:50:53;100501.72;;;16.76
81657;BMP280;71067;51.482;-0.580;2023-09-19T06:53:20;100488.00;;;16.80
81657;BMP280;71067;51.482;-0.580;2023-09-19T06:55:45;100463.91;;;16.78
81657;BMP280;71067;51.482;-0.580;2023-09-19T06:58:11;100469.94;;;16.79
81657;BMP280;71067;51.482;-0.580;2023-09-19T07:00:36;100476.28;;;16.89
81657;BMP280;71067;51.482;-0.580;2023-09-19T07:03:06;100476.28;;;16.89
81657;BMP280;71067;51.482;-0.580;2023-09-19T07:05:39;100465.84;;;16.89
81657;BMP280;71067;51.482;-0.580;2023-09-19T07:08:06;100453.78;;;16.88
81657;BMP280;71067;51.482;-0.580;2023-09-19T07:10:32;100457.13;;;16.95
81657;BMP280;71067;51.482;-0.580;2023-09-19T07:12:59;100460.97;;;16.99
81657;BMP280;71067;51.482;-0.580;2023-09-19T07:15:25;100457.13;;;17.02
81657;BMP280;71067;51.482;-0.580;2023-09-19T07:17:54;100448.84;;;17.05
81657;BMP280;71067;51.482;-0.580;2023-09-19T07:20:21;100456.47;;;17.06
81657;BMP280;71067;51.482;-0.580;2023-09-19T07:22:47;100455.66;;;17.06
81657;BMP280;71067;51.482;-0.580;2023-09-19T07:25:13;100445.78;;;17.08
81657;BMP280;71067;51.482;-0.580;2023-09-19T07:27:40;100443.13;;;17.14
81657;BMP280;71067;51.482;-0.580;2023-09-19T07:30:05;100426.50;;;17.02
81657;BMP280;71067;51.482;-0.580;2023-09-19T07:32:31;100421.66;;;17.06
81657;BMP280;71067;51.482;-0.580;2023-09-19T07:34:56;100438.50;;;17.16
81657;BMP280;71067;51.482;-0.580;2023-09-19T07:37:21;100452.16;;;17.18
81657;BMP280;71067;51.482;-0.580;2023-09-19T07:39:47;100448.75;;;17.18
81657;BMP280;71067;51.482;-0.580;2023-09-19T07:42:12;100442.72;;;17.17
81657;BMP280;71067;51.482;-0.580;2023-09-19T07:44:43;100440.44;;;17.21
81657;BMP280;71067;51.482;-0.580;2023-09-19T07:47:08;100446.31;;;17.23
81657;BMP280;71067;51.482;-0.580;2023-09-19T07:49:34;100430.03;;;17.14
81657;BMP280;71067;51.482;-0.580;2023-09-19T07:51:59;100458.78;;;17.21
81657;BMP280;71067;51.482;-0.580;2023-09-19T07:54:25;100430.22;;;17.19
81657;BMP280;71067;51.482;-0.580;2023-09-19T07:56:55;100431.88;;;17.14
81657;BMP280;71067;51.482;-0.580;2023-09-19T07:59:21;100446.16;;;17.18
81657;BMP280;71067;51.482;-0.580;2023-09-19T08:01:46;100449.94;;;17.15
81657;BMP280;71067;51.482;-0.580;2023-09-19T08:04:12;100442.34;;;17.14
81657;BMP280;71067;51.482;-0.580;2023-09-19T08:06:38;100450.34;;;17.19
81657;BMP280;71067;51.482;-0.580;2023-09-19T08:09:04;100449.53;;;17.18
81657;BMP280;71067;51.482;-0.580;2023-09-19T08:11:35;100442.72;;;17.17
81657;BMP280;71067;51.482;-0.580;2023-09-19T08:14:01;100416.34;;;17.19
81657;BMP280;71067;51.482;-0.580;2023-09-19T08:16:26;100417.44;;;17.29
81657;BMP280;71067;51.482;-0.580;2023-09-19T08:18:52;100423.91;;;17.34
81657;BMP280;71067;51.482;-0.580;2023-09-19T08:21:20;100412.97;;;17.37
81657;BMP280;71067;51.482;-0.580;2023-09-19T08:23:45;100414.94;;;17.41
81657;BMP280;71067;51.482;-0.580;2023-09-19T08:26:11;100400.03;;;17.42
81657;BMP280;71067;51.482;-0.580;2023-09-19T08:28:37;100392.97;;;17.42
81657;BMP280;71067;51.482;-0.580;2023-09-19T08:31:06;100402.50;;;17.55
81657;BMP280;71067;51.482;-0.580;2023-09-19T08:33:32;100402.69;;;17.60
81657;BMP280;71067;51.482;-0.580;2023-09-19T08:35:58;100412.09;;;17.67
81657;BMP280;71067;51.482;-0.580;2023-09-19T08:38:24;100410.03;;;17.69
81657;BMP280;71067;51.482;-0.580;2023-09-19T08:40:51;100423.28;;;17.74
81657;BMP280;71067;51.482;-0.580;2023-09-19T08:43:16;100424.69;;;17.77
81657;BMP280;71067;51.482;-0.580;2023-09-19T08:45:41;100426.88;;;17.80
81657;BMP280;71067;51.482;-0.580;2023-09-19T08:48:24;100437.50;;;17.85
81657;BMP280;71067;51.482;-0.580;2023-09-19T08:51:02;100447.44;;;17.76
81657;BMP280;71067;51.482;-0.580;2023-09-19T08:53:50;100445.09;;;17.68
81657;BMP280;71067;51.482;-0.580;2023-09-19T08:56:17;100439.06;;;17.68
81657;BMP280;71067;51.482;-0.580;2023-09-19T08:58:50;100435.22;;;17.70
81657;BMP280;71067;51.482;-0.580;2023-09-19T09:01:18;100440.81;;;17.74
81657;BMP280;71067;51.482;-0.580;2023-09-19T09:03:51;100424.28;;;17.73
81657;BMP280;71067;51.482;-0.580;2023-09-19T09:06:19;100423.44;;;17.79
81657;BMP280;71067;51.482;-0.580;2023-09-19T09:08:45;100433.25;;;17.84
81657;BMP280;71067;51.482;-0.580;2023-09-19T09:11:12;100435.69;;;17.85
81657;BMP280;71067;51.482;-0.580;2023-09-19T09:13:38;100431.59;;;17.89
81657;BMP280;71067;51.482;-0.580;2023-09-19T09:16:07;100431.97;;;17.93
81657;BMP280;71067;51.482;-0.580;2023-09-19T09:18:33;100448.13;;;17.90
81657;BMP280;71067;51.482;-0.580;2023-09-19T09:20:58;100445.06;;;17.93
81657;BMP280;71067;51.482;-0.580;2023-09-19T09:23:23;100433.22;;;17.90
81657;BMP280;71067;51.482;-0.580;2023-09-19T09:25:54;100426.72;;;17.93
81657;BMP280;71067;51.482;-0.580;2023-09-19T09:28:23;100432.47;;;18.01
81657;BMP280;71067;51.482;-0.580;2023-09-19T09:30:49;100431.59;;;18.07
81657;BMP280;71067;51.482;-0.580;2023-09-19T09:33:16;100443.03;;;18.13
81657;BMP280;71067;51.482;-0.580;2023-09-19T09:38:17;100418.00;;;18.17
81657;BMP280;71067;51.482;-0.580;2023-09-19T09:40:48;100440.03;;;18.27
81657;BMP280;71067;51.482;-0.580;2023-09-19T09:43:35;100440.38;;;18.31
81657;BMP280;71067;51.482;-0.580;2023-09-19T09:46:13;100420.91;;;18.38
81657;BMP280;71067;51.482;-0.580;2023-09-19T09:49:01;100419.34;;;18.37
81657;BMP280;71067;51.482;-0.580;2023-09-19T09:51:51;100428.50;;;18.46
81657;BMP280;71067;51.482;-0.580;2023-09-19T09:54:25;100437.72;;;18.49
81657;BMP280;71067;51.482;-0.580;2023-09-19T09:57:09;100430.09;;;18.47
81657;BMP280;71067;51.482;-0.580;2023-09-19T09:59:56;100414.63;;;18.57
81657;BMP280;71067;51.482;-0.580;2023-09-19T10:02:28;100409.75;;;18.61
81657;BMP280;71067;51.482;-0.580;2023-09-19T10:04:55;100421.38;;;18.65
81657;BMP280;71067;51.482;-0.580;2023-09-19T10:07:29;100410.44;;;18.68
81657;BMP280;71067;51.482;-0.580;2023-09-19T10:10:04;100418.19;;;18.63
81657;BMP280;71067;51.482;-0.580;2023-09-19T10:12:47;100418.88;;;18.70
81657;BMP280;71067;51.482;-0.580;2023-09-19T10:15:14;100407.59;;;18.70
81657;BMP280;71067;51.482;-0.580;2023-09-19T10:17:42;100412.19;;;18.74
81657;BMP280;71067;51.482;-0.580;2023-09-19T10:20:09;100405.22;;;18.80
81657;BMP280;71067;51.482;-0.580;2023-09-19T10:22:48;100406.81;;;18.81
81657;BMP280;71067;51.482;-0.580;2023-09-19T10:25:25;100397.81;;;18.88
81657;BMP280;71067;51.482;-0.580;2023-09-19T10:27:51;100398.41;;;18.90
81657;BMP280;71067;51.482;-0.580;2023-09-19T10:30:19;100416.75;;;19.02
81657;BMP280;71067;51.482;-0.580;2023-09-19T10:32:46;100401.81;;;19.02
81657;BMP280;71067;51.482;-0.580;2023-09-19T10:35:16;100412.03;;;19.10
81657;BMP280;71067;51.482;-0.580;2023-09-19T10:37:43;100419.91;;;19.10
81657;BMP280;71067;51.482;-0.580;2023-09-19T10:40:10;100409.41;;;19.10
81657;BMP280;71067;51.482;-0.580;2023-09-19T10:42:42;100416.94;;;19.18
81657;BMP280;71067;51.482;-0.580;2023-09-19T10:45:08;100408.25;;;19.18
81657;BMP280;71067;51.482;-0.580;2023-09-19T10:47:38;100399.91;;;19.21
81657;BMP280;71067;51.482;-0.580;2023-09-19T10:50:06;100412.09;;;19.15
81657;BMP280;71067;51.482;-0.580;2023-09-19T10:52:31;100414.19;;;19.13
81657;BMP280;71067;51.482;-0.580;2023-09-19T10:55:00;100412.00;;;19.22
81657;BMP280;71067;51.482;-0.580;2023-09-19T10:57:26;100413.63;;;19.23
81657;BMP280;71067;51.482;-0.580;2023-09-19T11:00:06;100412.94;;;19.27
81657;BMP280;71067;51.482;-0.580;2023-09-19T11:06:03;100413.72;;;19.28
81657;BMP280;71067;51.482;-0.580;2023-09-19T11:08:30;100416.72;;;19.31
81657;BMP280;71067;51.482;-0.580;2023-09-19T11:10:57;100413.72;;;19.28
81657;BMP280;71067;51.482;-0.580;2023-09-19T11:13:24;100411.22;;;19.21
81657;BMP280;71067;51.482;-0.580;2023-09-19T11:21:38;100404.72;;;19.24
81657;BMP280;71067;51.482;-0.580;2023-09-19T11:26:50;100401.84;;;19.25
81657;BMP280;71067;51.482;-0.580;2023-09-19T11:29:32;100407.09;;;19.25
81657;BMP280;71067;51.482;-0.580;2023-09-19T11:31:58;100401.75;;;19.32
81657;BMP280;71067;51.482;-0.580;2023-09-19T11:37:00;100396.50;;;19.32
81657;BMP280;71067;51.482;-0.580;2023-09-19T11:39:29;100411.47;;;19.31
81657;BMP280;71067;51.482;-0.580;2023-09-19T11:41:54;100393.63;;;19.22
81657;BMP280;71067;51.482;-0.580;2023-09-19T11:44:32;100407.91;;;19.26
81657;BMP280;71067;51.482;-0.580;2023-09-19T11:47:04;100399.78;;;19.27
81657;BMP280;71067;51.482;-0.580;2023-09-19T11:49:31;100400.84;;;19.26
81657;BMP280;71067;51.482;-0.580;2023-09-19T11:51:59;100398.34;;;19.31
81657;BMP280;71067;51.482;-0.580;2023-09-19T11:54:30;100400.16;;;19.31
81657;BMP280;71067;51.482;-0.580;2023-09-19T11:57:00;100395.69;;;19.31
81657;BMP280;71067;51.482;-0.580;2023-09-19T11:59:27;100389.75;;;19.36
81657;BMP280;71067;51.482;-0.580;2023-09-19T12:01:57;100397.63;;;19.36
81657;BMP280;71067;51.482;-0.580;2023-09-19T12:04:43;100392.63;;;19.34
81657;BMP280;71067;51.482;-0.580;2023-09-19T12:07:12;100400.50;;;19.34
81657;BMP280;71067;51.482;-0.580;2023-09-19T12:09:48;100404.50;;;19.37
81657;BMP280;71067;51.482;-0.580;2023-09-19T12:12:24;100394.66;;;19.32
81657;BMP280;71067;51.482;-0.580;2023-09-19T12:14:52;100394.66;;;19.32
81657;BMP280;71067;51.482;-0.580;2023-09-19T12:17:18;100400.94;;;19.31
81657;BMP280;71067;51.482;-0.580;2023-09-19T12:19:51;100400.16;;;19.31
81657;BMP280;71067;51.482;-0.580;2023-09-19T12:22:17;100401.75;;;19.32
81657;BMP280;71067;51.482;-0.580;2023-09-19T12:24:44;100379.94;;;19.31
81657;BMP280;71067;51.482;-0.580;2023-09-19T12:27:10;100392.03;;;19.32
81657;BMP280;71067;51.482;-0.580;2023-09-19T12:29:47;100382.56;;;19.31
81657;BMP280;71067;51.482;-0.580;2023-09-19T12:32:34;100383.00;;;19.40
81657;BMP280;71067;51.482;-0.580;2023-09-19T12:34:59;100379.59;;;19.39
81657;BMP280;71067;51.482;-0.580;2023-09-19T12:37:24;100382.34;;;19.44
81657;BMP280;71067;51.482;-0.580;2023-09-19T12:40:03;100384.84;;;19.39
81657;BMP280;71067;51.482;-0.580;2023-09-19T12:42:40;100381.75;;;19.42
81657;BMP280;71067;51.482;-0.580;2023-09-19T12:45:07;100369.22;;;19.44
81657;BMP280;71067;51.482;-0.580;2023-09-19T12:47:33;100367.13;;;19.46
81657;BMP280;71067;51.482;-0.580;2023-09-19T12:52:41;100376.75;;;19.41
81657;BMP280;71067;51.482;-0.580;2023-09-19T12:55:07;100380.59;;;19.38
81657;BMP280;71067;51.482;-0.580;2023-09-19T12:57:35;100380.59;;;19.38
81657;BMP280;71067;51.482;-0.580;2023-09-19T13:00:04;100379.00;;;19.37
81657;BMP280;71067;51.482;-0.580;2023-09-19T13:02:37;100373.75;;;19.37
81657;BMP280;71067;51.482;-0.580;2023-09-19T13:05:03;100371.38;;;19.36
81657;BMP280;71067;51.482;-0.580;2023-09-19T13:07:44;100380.59;;;19.38
81657;BMP280;71067;51.482;-0.580;2023-09-19T13:10:14;100377.97;;;19.38
81657;BMP280;71067;51.482;-0.580;2023-09-19T13:12:42;100361.41;;;19.38
81657;BMP280;71067;51.482;-0.580;2023-09-19T13:15:13;100352.19;;;19.35
81657;BMP280;71067;51.482;-0.580;2023-09-19T13:17:49;100363.84;;;19.39
81657;BMP280;71067;51.482;-0.580;2023-09-19T13:20:24;100376.75;;;19.41
81657;BMP280;71067;51.482;-0.580;2023-09-19T13:22:53;100365.53;;;19.45
81657;BMP280;71067;51.482;-0.580;2023-09-19T13:25:23;100377.19;;;19.49
81657;BMP280;71067;51.482;-0.580;2023-09-19T13:30:18;100369.88;;;19.51
81657;BMP280;71067;51.482;-0.580;2023-09-19T13:32:44;100369.31;;;19.49
81657;BMP280;71067;51.482;-0.580;2023-09-19T13:35:12;100366.53;;;19.56
81657;BMP280;71067;51.482;-0.580;2023-09-19T13:37:38;100367.91;;;19.58
81657;BMP280;71067;51.482;-0.580;2023-09-19T13:40:12;100364.25;;;19.59
81657;BMP280;71067;51.482;-0.580;2023-09-19T13:42:37;100364.16;;;19.54
81657;BMP280;71067;51.482;-0.580;2023-09-19T13:45:04;100382.41;;;19.61
81657;BMP280;71067;51.482;-0.580;2023-09-19T13:47:35;100378.66;;;19.57
81657;BMP280;71067;51.482;-0.580;2023-09-19T13:50:04;100346.78;;;19.53
81657;BMP280;71067;51.482;-0.580;2023-09-19T13:52:30;100360.03;;;19.58
81657;BMP280;71067;51.482;-0.580;2023-09-19T13:54:56;100362.75;;;19.63
81657;BMP280;71067;51.482;-0.580;2023-09-19T13:57:22;100353.75;;;19.59
81657;BMP280;71067;51.482;-0.580;2023-09-19T13:59:48;100371.78;;;19.67
81657;BMP280;71067;51.482;-0.580;2023-09-19T14:02:13;100367.09;;;19.69
81657;BMP280;71067;51.482;-0.580;2023-09-19T14:04:39;100364.47;;;19.69
81657;BMP280;71067;51.482;-0.580;2023-09-19T14:07:04;100368.34;;;19.78
81657;BMP280;71067;51.482;-0.580;2023-09-19T14:09:29;100372.09;;;19.82
81657;BMP280;71067;51.482;-0.580;2023-09-19T14:11:55;100355.66;;;19.75
81657;BMP280;71067;51.482;-0.580;2023-09-19T14:14:21;100358.38;;;19.80
81657;BMP280;71067;51.482;-0.580;2023-09-19T14:16:47;100366.34;;;19.85
81657;BMP280;71067;51.482;-0.580;2023-09-19T14:19:13;100367.41;;;19.84
81657;BMP280;71067;51.482;-0.580;2023-09-19T14:21:40;100367.16;;;19.86
81657;BMP280;71067;51.482;-0.580;2023-09-19T14:24:05;100366.69;;;19.89
81657;BMP280;71067;51.482;-0.580;2023-09-19T14:26:38;100353.22;;;19.97